Time;durP1;ratioP1;P1;durP2;ratioP2;P2;SDS_P1;SDS_P2;PMS_P1;PMS_P2;Temp;Humidity;BMP_temperature;BMP_pressure;BME280_temperature;BME280_humidity;BME280_pressure;Samples;Min_cycle;Max_cycle;Signal;HPM_P1;HPM_P2
2023/10/02 00:01:06;;;;;;;20.17;11.90;;;;;;;15.37;100.00;101855.09;4991962;28;20232;-70
2023/10/02 00:03:32;;;;;;;20.05;12.77;;;;;;;15.32;100.00;101846.44;4998212;28;20140;-70
2023/10/02 00:05:58;;;;;;;18.85;12.60;;;;;;;15.28;100.00;101850.22;4995048;28;20036;-70
2023/10/02 00:08:39;;;;;;;19.30;12.07;;;;;;;15.27;100.00;101845.81;4996582;28;20026;-70
2023/10/02 00:16:59;;;;;;;19.92;12.05;;;;;;;15.22;100.00;101847.91;4998074;28;20547;-71
2023/10/02 00:19:38;;;;;;;17.95;11.93;;;;;;;15.21;100.00;101841.66;4990429;28;20046;-70
2023/10/02 00:22:07;;;;;;;19.48;12.20;;;;;;;15.20;100.00;101845.28;4997606;28;20277;-71
2023/10/02 00:24:40;;;;;;;18.65;12.27;;;;;;;15.10;100.00;101847.59;5000315;28;20036;-70
2023/10/02 00:27:07;;;;;;;18.00;12.10;;;;;;;15.07;100.00;101838.84;4996845;28;20038;-70
2023/10/02 00:29:33;;;;;;;18.92;12.13;;;;;;;15.01;100.00;101836.53;4989847;28;20492;-70
2023/10/02 00:31:59;;;;;;;17.42;11.40;;;;;;;15.02;100.00;101844.47;4997917;28;20088;-71
2023/10/02 00:34:32;;;;;;;18.20;12.13;;;;;;;14.98;100.00;101850.94;4999202;28;20439;-72
2023/10/02 00:37:06;;;;;;;19.77;12.10;;;;;;;15.01;100.00;101849.94;4999258;28;20104;-70
2023/10/02 00:39:35;;;;;;;19.23;12.38;;;;;;;15.00;100.00;101848.16;4988834;28;20084;-70
2023/10/02 00:42:17;;;;;;;19.33;12.05;;;;;;;14.91;100.00;101836.13;4997063;28;20451;-69
2023/10/02 00:44:54;;;;;;;19.33;11.90;;;;;;;14.90;100.00;101842.44;4992216;28;20028;-70
2023/10/02 00:50:16;;;;;;;16.17;11.20;;;;;;;14.83;100.00;101841.88;4991824;28;20048;-70
2023/10/02 00:52:42;;;;;;;16.98;11.23;;;;;;;14.79;100.00;101834.97;4998945;28;20490;-70
2023/10/02 00:55:15;;;;;;;15.93;10.60;;;;;;;14.77;100.00;101836.00;4998608;28;20034;-71
2023/10/02 00:57:41;;;;;;;18.83;12.10;;;;;;;14.76;100.00;101832.47;4991520;28;20484;-70
2023/10/02 01:00:17;;;;;;;16.63;10.85;;;;;;;14.74;100.00;101837.00;4993815;28;20472;-69
2023/10/02 01:02:57;;;;;;;18.95;11.68;;;;;;;14.76;100.00;101834.28;4999522;28;20025;-70
2023/10/02 01:05:30;;;;;;;16.98;11.57;;;;;;;14.70;100.00;101833.63;4994447;28;20354;-70
2023/10/02 01:07:57;;;;;;;18.88;11.63;;;;;;;14.70;100.00;101832.75;4979339;28;20030;-71
2023/10/02 01:10:23;;;;;;;22.23;13.02;;;;;;;14.65;100.00;101832.16;4994219;28;20062;-70
2023/10/02 01:12:50;;;;;;;18.40;12.15;;;;;;;14.62;100.00;101827.81;4993683;28;20499;-71
2023/10/02 01:15:20;;;;;;;19.92;11.95;;;;;;;14.61;100.00;101830.56;4989601;28;20508;-70
2023/10/02 01:17:48;;;;;;;17.65;11.13;;;;;;;14.62;100.00;101834.97;4999439;28;20026;-71
2023/10/02 01:23:16;;;;;;;18.80;11.70;;;;;;;14.55;100.00;101831.75;4996526;28;20084;-70
2023/10/02 01:25:44;;;;;;;16.83;11.07;;;;;;;14.52;100.00;101831.06;5002860;28;20034;-70
2023/10/02 01:28:13;;;;;;;17.88;11.43;;;;;;;14.49;100.00;101820.50;5003964;28;20118;-71
2023/10/02 01:30:40;;;;;;;18.02;11.18;;;;;;;14.47;100.00;101828.59;4985619;28;20479;-70
2023/10/02 01:33:12;;;;;;;19.75;11.13;;;;;;;14.44;100.00;101826.91;4997537;28;20032;-70
2023/10/02 01:35:47;;;;;;;18.52;11.80;;;;;;;14.46;100.00;101824.16;4996402;28;20029;-71
2023/10/02 01:38:24;;;;;;;18.10;11.73;;;;;;;14.39;100.00;101818.25;5001053;28;20108;-70
2023/10/02 01:40:54;;;;;;;19.73;11.90;;;;;;;14.41;100.00;101821.72;4998680;28;20250;-70
2023/10/02 01:43:27;;;;;;;18.80;11.75;;;;;;;14.41;100.00;101815.50;4999406;28;20108;-70
2023/10/02 01:45:56;;;;;;;19.40;11.52;;;;;;;14.44;100.00;101818.03;4999806;28;20026;-70
2023/10/02 01:48:40;;;;;;;18.65;11.43;;;;;;;14.43;100.00;101825.19;5004398;28;20022;-70
2023/10/02 01:51:25;;;;;;;17.85;11.48;;;;;;;14.43;100.00;101816.28;5002989;28;20077;-71
2023/10/02 01:53:58;;;;;;;16.38;10.73;;;;;;;14.47;100.00;101817.00;4997980;28;20077;-73
2023/10/02 01:56:25;;;;;;;16.13;10.98;;;;;;;14.42;100.00;101820.78;5003860;28;20050;-73
2023/10/02 01:58:53;;;;;;;17.05;11.00;;;;;;;14.40;100.00;101817.31;5000378;28;20034;-71
2023/10/02 02:01:23;;;;;;;16.60;11.10;;;;;;;14.36;100.00;101812.19;5001785;28;20026;-69
2023/10/02 02:03:50;;;;;;;17.80;11.23;;;;;;;14.33;100.00;101815.88;4995860;28;20038;-71
2023/10/02 02:06:22;;;;;;;19.42;11.98;;;;;;;14.30;100.00;101817.88;5002669;28;20037;-69
2023/10/02 02:09:01;;;;;;;17.92;10.85;;;;;;;14.30;100.00;101813.38;5002775;28;20037;-70
2023/10/02 02:11:29;;;;;;;18.02;11.25;;;;;;;14.30;100.00;101816.06;5005346;28;20080;-70
2023/10/02 02:13:58;;;;;;;16.77;11.23;;;;;;;14.32;100.00;101807.94;4999343;28;20018;-72
2023/10/02 02:16:38;;;;;;;19.08;11.38;;;;;;;14.29;100.00;101803.59;4996516;28;20092;-70
2023/10/02 02:19:07;;;;;;;17.45;10.85;;;;;;;14.27;100.00;101809.97;4997601;28;20140;-71
2023/10/02 02:21:32;;;;;;;18.05;11.23;;;;;;;14.25;100.00;101815.41;4998581;28;20044;-71
2023/10/02 02:24:06;;;;;;;18.63;11.35;;;;;;;14.20;100.00;101809.41;4996128;28;20468;-71
2023/10/02 02:26:37;;;;;;;17.30;11.32;;;;;;;14.21;100.00;101813.81;4998490;28;20033;-70
2023/10/02 02:29:03;;;;;;;18.65;11.57;;;;;;;14.23;100.00;101808.41;4996065;28;20041;-71
2023/10/02 02:31:30;;;;;;;20.08;12.02;;;;;;;14.20;100.00;101807.59;4997824;28;20042;-72
2023/10/02 02:34:04;;;;;;;18.92;12.10;;;;;;;14.17;100.00;101814.91;5003993;28;20504;-70
2023/10/02 02:36:35;;;;;;;21.88;12.63;;;;;;;14.17;100.00;101804.22;5016783;28;20029;-70
2023/10/02 02:39:16;;;;;;;20.92;12.40;;;;;;;14.16;100.00;101813.19;5012261;28;20029;-70
2023/10/02 02:41:43;;;;;;;21.83;13.57;;;;;;;14.18;100.00;101804.16;5013954;28;20456;-69
2023/10/02 02:46:54;;;;;;;21.00;13.73;;;;;;;14.26;100.00;101802.91;5007340;28;20196;-70
2023/10/02 02:49:19;;;;;;;21.05;14.05;;;;;;;14.24;100.00;101802.97;5009871;28;20061;-70
2023/10/02 02:51:48;;;;;;;20.05;12.98;;;;;;;14.23;100.00;101792.34;5007805;28;20087;-72
2023/10/02 02:54:14;;;;;;;18.80;12.45;;;;;;;14.23;100.00;101795.03;5006749;28;20029;-70
2023/10/02 02:56:40;;;;;;;20.63;13.10;;;;;;;14.24;100.00;101791.38;5001271;28;20137;-69
2023/10/02 02:59:08;;;;;;;20.58;13.73;;;;;;;14.23;100.00;101789.66;4978039;28;20026;-70
2023/10/02 03:01:34;;;;;;;22.13;14.05;;;;;;;14.25;100.00;101791.28;5001919;28;20044;-70
2023/10/02 03:04:11;;;;;;;19.15;13.15;;;;;;;14.25;100.00;101788.63;4994770;28;20397;-70
2023/10/02 03:06:37;;;;;;;18.48;12.55;;;;;;;14.26;100.00;101795.72;4998164;28;20026;-70
2023/10/02 03:09:05;;;;;;;21.20;13.00;;;;;;;14.23;100.00;101792.34;4997018;28;20757;-71
2023/10/02 03:11:32;;;;;;;17.40;11.98;;;;;;;14.23;100.00;101789.66;4992251;28;20026;-71
2023/10/02 03:14:12;;;;;;;19.48;11.90;;;;;;;14.21;100.00;101789.72;4995370;28;20033;-70
2023/10/02 03:16:38;;;;;;;18.60;11.73;;;;;;;14.21;100.00;101784.38;4995435;28;20109;-71
2023/10/02 03:19:07;;;;;;;19.05;11.95;;;;;;;14.20;100.00;101780.81;4999029;28;20034;-70
2023/10/02 03:21:34;;;;;;;22.25;12.52;;;;;;;14.19;100.00;101778.25;4992741;28;20026;-70
2023/10/02 03:24:01;;;;;;;17.80;12.15;;;;;;;14.16;100.00;101775.72;4993096;28;20021;-70
2023/10/02 03:26:27;;;;;;;19.92;11.48;;;;;;;14.14;100.00;101766.91;5000619;28;20026;-71
2023/10/02 03:29:02;;;;;;;18.55;11.55;;;;;;;14.13;100.00;101771.41;4995223;28;20021;-70
2023/10/02 03:31:51;;;;;;;18.48;11.05;;;;;;;14.14;100.00;101769.59;4998356;28;20120;-70
2023/10/02 03:34:27;;;;;;;19.05;12.05;;;;;;;14.10;100.00;101771.53;4975181;28;20026;-71
2023/10/02 03:37:08;;;;;;;18.48;11.32;;;;;;;14.08;100.00;101772.56;4993248;28;20033;-70
2023/10/02 03:42:22;;;;;;;18.05;12.10;;;;;;;14.08;100.00;101768.06;4997941;28;20056;-71
2023/10/02 03:44:56;;;;;;;19.05;10.93;;;;;;;14.03;100.00;101766.56;4998078;28;20022;-71
2023/10/02 03:47:22;;;;;;;19.33;11.82;;;;;;;14.04;100.00;101763.81;5000951;28;20193;-71
2023/10/02 03:49:49;;;;;;;19.15;11.23;;;;;;;14.04;100.00;101760.28;5001548;28;20088;-71
2023/10/02 03:52:17;;;;;;;19.58;11.25;;;;;;;14.04;100.00;101754.91;5003177;28;20033;-71
2023/10/02 03:54:44;;;;;;;18.58;12.23;;;;;;;14.03;100.00;101758.53;5002344;28;20037;-72
2023/10/02 03:57:59;;;;;;;20.90;12.02;;;;;;;14.03;100.00;101764.75;4995366;28;20028;-70
2023/10/02 03:59:57;;;;;;;22.58;13.15;;;;;;;14.01;100.00;101766.66;4982250;28;20046;-70
2023/10/02 04:02:25;;;;;;;20.58;13.02;;;;;;;13.99;100.00;101763.19;5001248;28;20093;-70
2023/10/02 04:04:51;;;;;;;20.33;12.60;;;;;;;13.93;100.00;101769.72;4989785;28;20112;-71
2023/10/02 04:07:17;;;;;;;19.58;12.88;;;;;;;13.92;100.00;101768.00;4996475;28;20073;-72
2023/10/02 04:09:50;;;;;;;22.73;13.30;;;;;;;13.88;100.00;101769.09;4998196;28;20036;-71
2023/10/02 04:12:17;;;;;;;19.65;12.75;;;;;;;13.88;100.00;101768.22;4998659;28;20403;-71
2023/10/02 04:14:43;;;;;;;18.98;12.32;;;;;;;13.88;100.00;101771.78;4998165;28;20479;-72
2023/10/02 04:17:20;;;;;;;21.17;12.77;;;;;;;13.88;100.00;101763.75;4999013;28;20041;-71
2023/10/02 04:19:48;;;;;;;19.92;12.85;;;;;;;13.85;100.00;101763.88;4993334;28;20030;-71
2023/10/02 04:22:22;;;;;;;19.17;12.10;;;;;;;13.82;100.00;101763.16;4980446;28;20038;-72
2023/10/02 04:24:51;;;;;;;19.50;12.35;;;;;;;13.75;100.00;101765.25;4994997;28;20026;-70
2023/10/02 04:33:07;;;;;;;17.02;12.13;;;;;;;13.68;100.00;101766.53;4992729;28;20043;-71
2023/10/02 04:35:45;;;;;;;17.42;11.65;;;;;;;13.65;100.00;101766.69;4996003;28;20109;-72
2023/10/02 04:38:14;;;;;;;18.05;11.65;;;;;;;13.61;100.00;101767.75;4995268;28;20038;-71
2023/10/02 04:40:49;;;;;;;18.83;11.35;;;;;;;13.60;100.00;101771.38;4995543;28;20023;-71
2023/10/02 04:43:19;;;;;;;16.73;11.52;;;;;;;13.58;100.00;101765.22;4992583;28;20030;-70
2023/10/02 04:46:02;;;;;;;18.35;11.80;;;;;;;13.56;100.00;101769.81;4993700;28;20091;-70
2023/10/02 04:48:39;;;;;;;19.73;12.73;;;;;;;13.57;100.00;101771.53;4997874;28;20034;-71
2023/10/02 04:51:09;;;;;;;19.25;11.82;;;;;;;13.52;100.00;101766.41;5000878;28;20398;-71
2023/10/02 04:53:36;;;;;;;19.73;11.77;;;;;;;13.47;100.00;101765.78;4991015;28;20037;-71
2023/10/02 04:56:13;;;;;;;20.67;12.18;;;;;;;13.45;100.00;101755.13;4989490;28;20060;-71
2023/10/02 04:58:47;;;;;;;21.85;13.60;;;;;;;13.47;100.00;101762.22;4995429;28;20032;-71
2023/10/02 05:01:24;;;;;;;19.48;13.23;;;;;;;13.45;100.00;101762.28;5002760;28;20100;-71
2023/10/02 05:03:52;;;;;;;21.13;13.25;;;;;;;13.41;100.00;101760.69;4999967;28;20022;-70
2023/10/02 05:06:39;;;;;;;23.88;14.07;;;;;;;13.39;100.00;101752.75;5001181;28;20161;-71
2023/10/02 05:11:46;;;;;;;19.80;14.63;;;;;;;13.35;100.00;101747.63;4997914;28;20038;-70
2023/10/02 05:14:14;;;;;;;23.17;15.90;;;;;;;13.33;100.00;101750.38;5001505;28;20034;-69
2023/10/02 05:16:42;;;;;;;22.52;14.98;;;;;;;13.30;100.00;101753.22;4995629;28;20034;-72
2023/10/02 05:19:09;;;;;;;21.10;14.32;;;;;;;13.32;100.00;101753.13;5001204;28;20480;-70
2023/10/02 05:21:38;;;;;;;25.80;16.90;;;;;;;13.27;100.00;101757.84;4979291;28;20052;-71
2023/10/02 05:24:11;;;;;;;28.38;20.35;;;;;;;13.26;100.00;101774.81;4998318;28;20042;-71
2023/10/02 05:26:38;;;;;;;26.37;17.97;;;;;;;13.25;100.00;101757.91;4997090;28;20042;-71
2023/10/02 05:29:05;;;;;;;26.17;17.17;;;;;;;13.27;100.00;101771.19;5000632;28;20670;-71
2023/10/02 05:31:35;;;;;;;23.90;15.15;;;;;;;13.19;100.00;101766.19;4995334;28;20046;-72
2023/10/02 05:34:22;;;;;;;22.23;14.85;;;;;;;13.19;100.00;101776.88;5001119;28;20611;-71
2023/10/02 05:39:40;;;;;;;22.15;14.00;;;;;;;13.20;100.00;101778.59;4998241;28;20038;-70
2023/10/02 05:42:20;;;;;;;20.70;14.20;;;;;;;13.16;100.00;101772.53;4991376;28;20034;-71
2023/10/02 05:44:49;;;;;;;22.38;13.60;;;;;;;13.15;100.00;101772.59;5003040;28;20053;-69
2023/10/02 05:47:17;;;;;;;24.13;14.10;;;;;;;13.21;100.00;101770.53;4999325;28;20555;-70
2023/10/02 05:49:47;;;;;;;23.60;14.73;;;;;;;13.21;100.00;101777.69;5002013;28;20070;-70
2023/10/02 05:52:19;;;;;;;22.75;14.00;;;;;;;13.21;100.00;101775.00;4998073;28;20029;-70
2023/10/02 05:54:53;;;;;;;20.45;13.90;;;;;;;13.21;100.00;101775.88;4997401;28;20026;-70
2023/10/02 05:57:19;;;;;;;20.77;14.05;;;;;;;13.26;100.00;101783.72;4984847;28;20125;-71
2023/10/02 05:59:47;;;;;;;23.50;14.43;;;;;;;13.28;100.00;101768.44;4997662;28;20117;-70
2023/10/02 06:02:22;;;;;;;21.98;13.70;;;;;;;13.30;100.00;101784.44;4998944;28;20029;-70
2023/10/02 06:04:49;;;;;;;24.48;14.50;;;;;;;13.33;100.00;101794.97;4979160;28;20186;-70
2023/10/02 06:07:39;;;;;;;22.17;14.32;;;;;;;13.44;100.00;101795.31;4999170;28;20034;-70
2023/10/02 06:10:08;;;;;;;20.70;13.95;;;;;;;13.51;100.00;101782.53;5000574;28;20046;-71
2023/10/02 06:12:42;;;;;;;21.00;13.30;;;;;;;13.55;100.00;101786.81;4994059;28;20117;-70
2023/10/02 06:15:42;;;;;;;23.52;14.25;;;;;;;13.64;100.00;101789.88;4994208;28;20113;-71
2023/10/02 06:17:56;;;;;;;22.05;13.63;;;;;;;13.72;100.00;101791.34;4994602;28;20042;-71
2023/10/02 06:20:21;;;;;;;22.63;13.63;;;;;;;13.77;100.00;101781.25;4998582;28;20030;-71
2023/10/02 06:22:47;;;;;;;22.33;13.77;;;;;;;13.83;100.00;101786.31;4990500;28;20036;-71
2023/10/02 06:25:18;;;;;;;24.92;14.10;;;;;;;13.90;100.00;101780.56;4999775;28;20088;-71
2023/10/02 06:27:47;;;;;;;23.75;14.80;;;;;;;13.98;100.00;101782.00;5001290;28;20037;-70
2023/10/02 06:30:16;;;;;;;27.00;14.75;;;;;;;14.09;100.00;101785.03;4998993;28;20058;-70
2023/10/02 06:32:52;;;;;;;21.38;13.65;;;;;;;14.26;100.00;101790.38;4993853;28;20573;-71
2023/10/02 06:35:21;;;;;;;22.17;13.50;;;;;;;14.42;100.00;101788.66;5000765;28;20026;-70
2023/10/02 06:37:51;;;;;;;22.80;15.07;;;;;;;14.56;100.00;101792.44;5001871;28;20116;-71
2023/10/02 06:40:23;;;;;;;24.10;14.02;;;;;;;14.66;100.00;101807.94;4995848;28;20692;-71
2023/10/02 06:42:58;;;;;;;21.60;13.85;;;;;;;14.75;100.00;101790.50;4982631;28;20037;-70
2023/10/02 06:45:29;;;;;;;23.27;13.98;;;;;;;14.80;100.00;101783.09;5003344;28;20274;-70
2023/10/02 06:47:56;;;;;;;22.45;14.70;;;;;;;14.89;100.00;101785.28;4971533;28;20026;-70
2023/10/02 06:50:31;;;;;;;23.60;14.20;;;;;;;14.93;100.00;101789.53;4997901;28;20026;-70
2023/10/02 06:52:59;;;;;;;23.15;13.27;;;;;;;15.01;100.00;101790.94;5001289;28;20033;-70
2023/10/02 06:55:26;;;;;;;22.70;13.68;;;;;;;15.06;100.00;101794.22;4997309;28;20106;-71
2023/10/02 06:57:56;;;;;;;21.10;13.60;;;;;;;15.14;100.00;101792.00;5003231;28;20033;-70
2023/10/02 07:00:25;;;;;;;22.67;13.32;;;;;;;15.16;100.00;101790.94;4997600;28;20512;-71
2023/10/02 07:02:57;;;;;;;24.45;13.80;;;;;;;15.20;100.00;101792.50;5000147;28;20025;-71
2023/10/02 07:05:34;;;;;;;21.25;13.48;;;;;;;15.30;100.00;101792.00;4993572;28;20022;-70
2023/10/02 07:08:17;;;;;;;22.65;14.10;;;;;;;15.36;100.00;101795.22;4999830;28;20037;-72
2023/10/02 07:10:47;;;;;;;21.53;13.87;;;;;;;15.45;100.00;101791.16;4999032;28;20369;-71
2023/10/02 07:13:19;;;;;;;22.02;13.93;;;;;;;15.58;100.00;101797.53;5000975;28;20029;-72
2023/10/02 07:15:59;;;;;;;22.17;14.23;;;;;;;15.65;100.00;101795.44;4995246;28;20037;-72
2023/10/02 07:18:36;;;;;;;20.13;13.27;;;;;;;15.74;100.00;101789.53;4991659;28;20083;-70
2023/10/02 07:21:07;;;;;;;23.00;13.32;;;;;;;15.80;100.00;101797.25;4993921;28;20060;-71
2023/10/02 07:23:37;;;;;;;19.95;13.60;;;;;;;15.90;100.00;101779.63;4999119;28;20136;-72
2023/10/02 07:26:12;;;;;;;23.58;14.68;;;;;;;16.02;100.00;101782.56;4984134;28;20041;-71
2023/10/02 07:28:50;;;;;;;23.90;13.68;;;;;;;16.13;100.00;101780.09;4975383;28;20124;-71
2023/10/02 07:31:24;;;;;;;23.45;14.60;;;;;;;16.34;100.00;101786.88;5001566;28;20093;-72
2023/10/02 07:33:55;;;;;;;22.77;13.88;;;;;;;16.62;100.00;101782.50;4997357;28;20065;-71
2023/10/02 07:36:20;;;;;;;21.73;13.65;;;;;;;16.90;100.00;101796.03;4998444;28;20037;-72
2023/10/02 07:38:46;;;;;;;20.75;13.18;;;;;;;17.17;100.00;101792.53;4997046;28;20034;-71
2023/10/02 07:41:24;;;;;;;21.23;13.07;;;;;;;17.41;100.00;101799.03;4996841;28;20488;-72
2023/10/02 07:43:54;;;;;;;22.42;13.70;;;;;;;17.62;100.00;101785.16;4996144;28;20034;-72
2023/10/02 07:46:21;;;;;;;22.80;13.32;;;;;;;17.87;100.00;101789.81;4987339;28;20029;-71
2023/10/02 07:49:00;;;;;;;19.48;12.73;;;;;;;18.07;100.00;101785.81;5000790;28;20037;-70
2023/10/02 07:51:30;;;;;;;21.13;13.60;;;;;;;18.30;99.43;101789.63;4992403;28;20090;-71
2023/10/02 07:53:59;;;;;;;21.58;13.25;;;;;;;18.41;99.85;101790.63;4997527;28;20025;-72
2023/10/02 07:56:27;;;;;;;21.63;13.48;;;;;;;18.54;98.62;101792.47;4999505;28;20034;-71
2023/10/02 07:58:55;;;;;;;22.20;13.10;;;;;;;18.61;98.14;101793.78;5008939;28;20026;-71
2023/10/02 08:01:27;;;;;;;20.95;13.25;;;;;;;18.79;96.17;101795.19;4992567;28;20045;-70
2023/10/02 08:03:55;;;;;;;22.52;12.82;;;;;;;18.80;96.85;101785.28;5012322;28;20042;-70
2023/10/02 08:06:21;;;;;;;21.58;13.32;;;;;;;19.00;97.46;101795.50;4996509;28;20033;-72
2023/10/02 08:11:39;;;;;;;23.63;13.13;;;;;;;19.01;95.47;101786.44;5003778;28;20053;-70
2023/10/02 08:14:34;;;;;;;23.48;13.10;;;;;;;19.02;95.50;101787.31;5004158;28;20032;-70
2023/10/02 08:16:59;;;;;;;20.33;12.20;;;;;;;18.98;95.10;101792.06;4995864;28;20045;-70
2023/10/02 08:19:24;;;;;;;21.15;12.23;;;;;;;18.91;94.20;101790.78;4994146;28;20078;-69
2023/10/02 08:21:50;;;;;;;20.92;12.18;;;;;;;19.19;93.43;101786.97;4996882;28;20091;-70
2023/10/02 08:24:15;;;;;;;22.05;12.75;;;;;;;19.83;93.18;101784.09;4996994;28;20168;-70
2023/10/02 08:26:45;;;;;;;21.48;13.20;;;;;;;20.42;86.11;101799.44;4996585;28;20160;-70
2023/10/02 08:29:18;;;;;;;20.73;12.75;;;;;;;20.47;87.38;101805.34;4995783;28;20034;-71
2023/10/02 08:31:47;;;;;;;18.52;12.13;;;;;;;20.45;86.69;101802.78;5002089;28;20316;-71
2023/10/02 08:34:19;;;;;;;18.70;11.32;;;;;;;20.73;86.44;101806.91;4988315;28;20257;-71
2023/10/02 08:36:46;;;;;;;24.95;13.50;;;;;;;21.83;80.84;101802.56;4999001;28;20234;-70
2023/10/02 08:39:11;;;;;;;21.85;13.00;;;;;;;22.86;76.16;101803.66;5003336;28;20014;-70
2023/10/02 08:41:50;;;;;;;19.83;12.90;;;;;;;23.43;71.96;101792.34;5002705;28;20030;-71
2023/10/02 08:44:16;;;;;;;19.35;12.43;;;;;;;24.12;68.27;101803.25;5004771;28;20028;-71
2023/10/02 08:46:45;;;;;;;19.08;11.70;;;;;;;24.60;65.30;101797.75;5002916;28;20033;-71
2023/10/02 08:49:12;;;;;;;20.20;12.90;;;;;;;25.04;63.64;101808.09;4996020;28;20548;-71
2023/10/02 08:51:38;;;;;;;19.65;12.73;;;;;;;25.31;61.89;101807.31;4998990;28;20038;-71
2023/10/02 08:54:05;;;;;;;19.08;11.77;;;;;;;25.92;59.39;101801.22;4992976;28;20037;-71
2023/10/02 08:56:45;;;;;;;20.15;12.48;;;;;;;26.28;57.45;101801.19;4999326;28;20076;-71
2023/10/02 08:59:16;;;;;;;18.30;12.05;;;;;;;25.91;59.52;101795.91;4988606;28;20088;-71
2023/10/02 09:01:42;;;;;;;20.73;12.35;;;;;;;25.58;58.42;101793.69;4999412;28;20467;-71
2023/10/02 09:06:58;;;;;;;19.85;12.25;;;;;;;24.75;62.65;101784.56;4996920;28;20038;-71
2023/10/02 09:11:57;;;;;;;19.80;11.85;;;;;;;23.88;66.41;101772.88;4999226;28;20026;-71
2023/10/02 09:20:07;;;;;;;18.25;11.95;;;;;;;23.43;71.02;101782.34;5000006;28;20053;-71
2023/10/02 09:22:41;;;;;;;19.05;12.68;;;;;;;23.26;71.17;101794.72;4996272;28;20567;-71
2023/10/02 09:25:12;;;;;;;17.95;11.75;;;;;;;23.22;70.62;101793.28;4997734;28;20443;-71
2023/10/02 09:27:54;;;;;;;18.80;11.52;;;;;;;22.99;70.83;101791.75;5002206;28;20079;-71
2023/10/02 09:30:23;;;;;;;19.95;12.35;;;;;;;22.61;72.26;101787.81;5000537;28;20218;-71
2023/10/02 09:32:52;;;;;;;19.15;11.77;;;;;;;22.40;74.42;101779.66;5002257;28;20045;-71
2023/10/02 09:35:40;;;;;;;18.75;12.43;;;;;;;22.34;75.23;101774.78;5003655;28;20132;-71
2023/10/02 09:38:06;;;;;;;18.98;12.02;;;;;;;22.25;77.34;101768.31;4995900;28;20057;-70
2023/10/02 09:40:54;;;;;;;18.80;12.20;;;;;;;22.37;77.45;101774.53;5001393;28;20437;-71
2023/10/02 09:43:23;;;;;;;20.63;12.65;;;;;;;22.56;75.69;101780.06;4997520;28;20021;-71
2023/10/02 09:45:53;;;;;;;18.48;12.07;;;;;;;22.61;74.94;101776.94;5000240;28;20022;-71
2023/10/02 09:49:03;;;;;;;18.17;11.85;;;;;;;22.71;76.25;101777.03;4995660;28;20049;-70
2023/10/02 09:52:23;;;;;;;20.92;12.23;;;;;;;22.64;76.20;101779.41;4999717;28;20542;-71
2023/10/02 09:55:10;;;;;;;20.00;12.48;;;;;;;22.51;75.74;101789.59;4979004;28;20127;-71
2023/10/02 09:57:49;;;;;;;19.55;11.70;;;;;;;22.75;75.99;101779.34;4982691;28;20032;-70
2023/10/02 10:00:34;;;;;;;18.27;11.93;;;;;;;24.99;70.75;101786.75;4985908;28;20156;-71
2023/10/02 10:03:24;;;;;;;19.13;11.77;;;;;;;26.54;63.79;101771.22;4985140;28;20014;-71
2023/10/02 10:06:16;;;;;;;18.48;11.85;;;;;;;26.10;63.19;101771.22;4995458;28;20021;-70
2023/10/02 10:14:42;;;;;;;19.27;12.55;;;;;;;30.07;47.34;101763.69;4993648;28;20057;-73
2023/10/02 10:17:17;;;;;;;18.35;11.45;;;;;;;30.43;46.86;101771.28;5000449;28;20037;-71
2023/10/02 10:19:53;;;;;;;18.52;11.20;;;;;;;31.16;47.11;101770.50;4997125;28;20057;-71
2023/10/02 10:22:39;;;;;;;17.30;11.10;;;;;;;30.78;47.90;101763.44;4997806;28;20026;-71
2023/10/02 10:25:32;;;;;;;17.20;10.95;;;;;;;30.14;50.84;101759.19;4991057;28;20034;-71
2023/10/02 10:28:05;;;;;;;19.02;12.20;;;;;;;29.52;47.87;101765.59;4998413;28;20034;-70
2023/10/02 10:30:39;;;;;;;20.05;12.25;;;;;;;29.44;48.85;101771.09;5003124;28;20018;-71
2023/10/02 10:33:15;;;;;;;18.92;11.75;;;;;;;29.71;47.85;101758.78;5003555;28;20065;-70
2023/10/02 10:35:57;;;;;;;19.55;11.00;;;;;;;29.95;47.67;101760.50;4997842;28;20121;-71
2023/10/02 10:38:36;;;;;;;16.15;10.85;;;;;;;29.32;48.00;101763.47;5000138;28;20021;-70
2023/10/02 10:41:31;;;;;;;18.90;11.68;;;;;;;28.75;51.04;101759.84;4996136;28;20034;-70
2023/10/02 10:43:57;;;;;;;18.08;11.45;;;;;;;27.98;50.74;101753.91;4993570;28;20026;-71
2023/10/02 10:46:23;;;;;;;16.83;11.18;;;;;;;27.76;51.64;101755.44;5003778;28;20091;-70
2023/10/02 10:49:23;;;;;;;21.13;12.18;;;;;;;27.88;52.45;101758.69;4997775;28;20026;-71
2023/10/02 10:51:53;;;;;;;17.10;11.23;;;;;;;28.02;53.49;101743.50;4980469;28;20071;-71
2023/10/02 10:54:25;;;;;;;20.25;12.32;;;;;;;27.90;52.96;101748.44;4993920;28;20551;-71
2023/10/02 10:59:45;;;;;;;18.20;11.25;;;;;;;27.43;54.22;101756.38;4998296;28;20036;-71
2023/10/02 11:02:15;;;;;;;18.98;11.25;;;;;;;27.07;56.27;101753.78;4998284;28;20464;-71
2023/10/02 11:04:48;;;;;;;20.00;11.77;;;;;;;26.78;57.75;101746.81;4999052;28;20488;-71
2023/10/02 11:07:25;;;;;;;16.55;11.70;;;;;;;26.65;57.79;101740.09;4996256;28;21179;-71
2023/10/02 11:10:15;;;;;;;17.15;10.40;;;;;;;26.55;59.18;101738.34;5000338;28;20037;-71
2023/10/02 11:12:56;;;;;;;19.42;12.27;;;;;;;26.77;58.05;101739.66;4989993;28;20030;-71
2023/10/02 11:18:28;;;;;;;18.27;11.57;;;;;;;26.54;59.19;101722.97;4932637;28;20039;-70
2023/10/02 11:20:55;;;;;;;16.88;10.43;;;;;;;26.62;59.41;101726.75;4935422;28;20073;-72
2023/10/02 11:23:37;;;;;;;16.02;11.20;;;;;;;26.73;60.10;101729.22;4931468;28;20103;-71
2023/10/02 11:26:11;;;;;;;19.97;11.60;;;;;;;27.05;59.79;101717.59;4928697;29;20043;-71
2023/10/02 11:28:37;;;;;;;17.10;11.52;;;;;;;27.89;57.54;101710.31;4933296;28;20303;-71
2023/10/02 11:31:29;;;;;;;16.65;10.65;;;;;;;28.64;54.26;101710.09;4933835;28;20051;-70
2023/10/02 11:34:04;;;;;;;17.17;11.52;;;;;;;28.72;53.46;101716.41;4931945;28;20114;-72
2023/10/02 11:36:34;;;;;;;17.35;11.30;;;;;;;28.44;52.55;101707.72;4935057;28;20106;-71
2023/10/02 11:39:02;;;;;;;17.73;11.27;;;;;;;28.59;52.88;101707.84;4936526;28;20522;-72
2023/10/02 11:41:27;;;;;;;18.38;12.02;;;;;;;28.99;51.11;101708.78;4929176;29;20031;-74
2023/10/02 11:43:56;;;;;;;16.98;11.15;;;;;;;29.38;50.47;101705.16;4937173;28;20528;-73
2023/10/02 11:46:21;;;;;;;17.48;10.95;;;;;;;29.97;49.26;101697.19;4931633;28;20038;-73
2023/10/02 11:48:51;;;;;;;18.25;11.77;;;;;;;31.67;46.17;101698.13;4953235;28;20045;-73
2023/10/02 11:51:16;;;;;;;16.30;11.30;;;;;;;32.53;43.00;101695.28;5002506;28;20037;-73
2023/10/02 11:53:41;;;;;;;17.67;11.13;;;;;;;32.01;42.93;101700.16;4996928;28;20033;-72
2023/10/02 11:56:07;;;;;;;17.13;11.52;;;;;;;31.56;43.52;101694.00;4999286;28;20103;-75
2023/10/02 11:58:32;;;;;;;18.13;11.88;;;;;;;30.67;46.70;101698.75;4999784;28;20504;-73
2023/10/02 12:00:58;;;;;;;17.88;11.52;;;;;;;29.62;49.22;101702.28;4997699;28;20461;-72
2023/10/02 12:03:23;;;;;;;18.02;11.40;;;;;;;28.95;51.33;101691.81;4997185;28;20085;-72
2023/10/02 12:05:50;;;;;;;18.45;11.35;;;;;;;28.36;52.76;101696.78;4998842;28;20026;-73
2023/10/02 12:08:20;;;;;;;17.55;11.23;;;;;;;28.09;54.98;101689.75;4980777;28;20056;-74
2023/10/02 12:10:46;;;;;;;22.42;12.05;;;;;;;27.95;56.93;101680.38;5001426;28;20108;-74
2023/10/02 12:13:12;;;;;;;21.42;11.25;;;;;;;27.91;55.94;101675.44;4997981;28;20121;-72
2023/10/02 12:15:38;;;;;;;16.52;11.20;;;;;;;28.41;54.11;101677.09;5002206;28;20099;-74
2023/10/02 12:18:04;;;;;;;19.40;11.93;;;;;;;28.33;54.59;101675.19;4997628;28;20085;-75
2023/10/02 12:20:30;;;;;;;18.95;11.77;;;;;;;27.92;54.44;101669.78;4999144;28;20029;-74